Time;durP1;ratioP1;P1;durP2;ratioP2;P2;SDS_P1;SDS_P2;PMS_P1;PMS_P2;Temp;Humidity;BMP_temperature;BMP_pressure;BME280_temperature;BME280_humidity;BME280_pressure;Samples;Min_cycle;Max_cycle;Signal;HPM_P1;HPM_P2
2021/01/26 00:00:32;;;;;;;47.40;27.47;;;;;;;;;;5028004;28;20205;-83
2021/01/26 00:02:57;;;;;;;42.47;25.23;;;;;;;;;;5044674;28;20179;-83
2021/01/26 00:05:24;;;;;;;32.60;21.07;;;;;;;;;;5024457;28;20662;-83
2021/01/26 00:07:50;;;;;;;40.80;25.20;;;;;;;;;;5024083;28;20205;-81
2021/01/26 00:10:16;;;;;;;38.13;25.13;;;;;;;;;;5024422;28;20197;-82
2021/01/26 00:12:42;;;;;;;39.63;24.20;;;;;;;;;;5042542;28;20179;-81
2021/01/26 00:15:09;;;;;;;40.20;25.13;;;;;;;;;;5025275;28;20730;-80
2021/01/26 00:17:35;;;;;;;37.73;23.27;;;;;;;;;;5026475;28;20186;-81
2021/01/26 00:20:01;;;;;;;33.53;21.03;;;;;;;;;;5041661;28;20186;-80
2021/01/26 00:22:27;;;;;;;36.27;22.40;;;;;;;;;;5024640;28;20179;-81
2021/01/26 00:24:53;;;;;;;31.90;21.33;;;;;;;;;;5028708;28;20201;-81
2021/01/26 00:27:19;;;;;;;29.37;20.63;;;;;;;;;;5045266;28;20175;-80
2021/01/26 00:29:45;;;;;;;32.07;22.17;;;;;;;;;;5045323;28;20193;-81
2021/01/26 00:32:12;;;;;;;29.00;19.70;;;;;;;;;;5043680;28;20182;-82
2021/01/26 00:34:37;;;;;;;27.17;19.47;;;;;;;;;;5024460;28;20186;-81
2021/01/26 00:37:03;;;;;;;32.40;19.00;;;;;;;;;;5026024;28;20186;-81
2021/01/26 00:39:29;;;;;;;30.40;20.33;;;;;;;;;;5026276;28;20603;-81
2021/01/26 00:41:55;;;;;;;29.17;18.73;;;;;;;;;;5027919;28;20214;-81
2021/01/26 00:44:21;;;;;;;33.63;22.33;;;;;;;;;;5025378;28;20250;-81
2021/01/26 00:46:47;;;;;;;37.23;22.30;;;;;;;;;;5026543;28;20187;-80
2021/01/26 00:49:13;;;;;;;35.20;22.60;;;;;;;;;;5043554;28;20245;-81
2021/01/26 00:51:39;;;;;;;31.90;21.67;;;;;;;;;;5025685;28;20202;-81
2021/01/26 00:54:05;;;;;;;35.23;20.47;;;;;;;;;;5025883;28;20607;-82
2021/01/26 00:56:31;;;;;;;36.93;21.23;;;;;;;;;;5024424;28;20185;-83
2021/01/26 00:58:57;;;;;;;37.27;22.27;;;;;;;;;;5025260;28;20237;-82
2021/01/26 01:01:23;;;;;;;38.23;24.33;;;;;;;;;;5023694;28;20765;-82
2021/01/26 01:03:49;;;;;;;37.07;22.10;;;;;;;;;;5024838;28;20189;-81
2021/01/26 01:06:15;;;;;;;36.33;22.63;;;;;;;;;;5024782;28;20236;-84
2021/01/26 01:08:41;;;;;;;40.20;23.27;;;;;;;;;;5026821;28;20214;-82
2021/01/26 01:11:07;;;;;;;32.40;19.00;;;;;;;;;;5024571;28;20261;-82
2021/01/26 01:13:33;;;;;;;31.10;18.47;;;;;;;;;;5024668;28;20190;-81
2021/01/26 01:15:59;;;;;;;30.20;20.13;;;;;;;;;;5025165;28;20278;-84
2021/01/26 01:18:25;;;;;;;28.07;17.13;;;;;;;;;;5025763;28;20556;-83
2021/01/26 01:20:51;;;;;;;28.47;16.60;;;;;;;;;;5024366;28;20270;-84
2021/01/26 01:23:17;;;;;;;26.67;17.37;;;;;;;;;;5023137;28;20274;-81
2021/01/26 01:25:43;;;;;;;29.43;16.60;;;;;;;;;;5024212;28;20246;-81
2021/01/26 01:28:09;;;;;;;23.13;14.53;;;;;;;;;;5024136;28;20546;-81
2021/01/26 01:30:35;;;;;;;23.73;14.60;;;;;;;;;;5025458;28;20199;-80
2021/01/26 01:33:02;;;;;;;27.03;14.93;;;;;;;;;;5025488;28;20669;-81
2021/01/26 01:35:28;;;;;;;20.60;12.53;;;;;;;;;;5026845;28;20664;-84
2021/01/26 01:37:54;;;;;;;18.23;12.50;;;;;;;;;;5027835;28;20191;-83
2021/01/26 01:40:21;;;;;;;12.03;8.00;;;;;;;;;;5027047;28;20210;-82
2021/01/26 01:42:48;;;;;;;17.60;10.40;;;;;;;;;;5026212;28;20643;-81
2021/01/26 01:45:14;;;;;;;18.80;11.50;;;;;;;;;;5027273;28;20657;-83
2021/01/26 01:47:41;;;;;;;13.97;8.27;;;;;;;;;;5042974;28;20705;-82
2021/01/26 01:50:08;;;;;;;12.43;9.27;;;;;;;;;;5042725;28;20199;-81
2021/01/26 01:52:34;;;;;;;17.07;8.27;;;;;;;;;;5025566;28;20178;-81
2021/01/26 01:55:08;;;;;;;13.77;7.40;;;;;;;;;;5026582;28;20631;-82
2021/01/26 01:57:39;;;;;;;12.37;8.33;;;;;;;;;;5042620;28;20179;-84
2021/01/26 02:00:09;;;;;;;11.20;5.83;;;;;;;;;;5027197;28;20221;-81
2021/01/26 02:02:35;;;;;;;13.30;7.03;;;;;;;;;;5027294;28;20178;-81
2021/01/26 02:05:02;;;;;;;12.53;7.07;;;;;;;;;;5026500;28;20226;-81
2021/01/26 02:07:28;;;;;;;10.03;6.00;;;;;;;;;;5042534;28;20175;-83
2021/01/26 02:09:54;;;;;;;8.63;5.63;;;;;;;;;;5026657;28;20178;-81
2021/01/26 02:12:20;;;;;;;11.47;6.70;;;;;;;;;;5026445;28;20175;-81
2021/01/26 02:14:49;;;;;;;11.73;6.37;;;;;;;;;;5026243;28;20179;-81
2021/01/26 02:17:22;;;;;;;12.60;6.07;;;;;;;;;;5026345;28;20175;-81
2021/01/26 02:20:07;;;;;;;11.00;6.37;;;;;;;;;;5025133;28;20179;-81
2021/01/26 02:22:59;;;;;;;13.00;5.40;;;;;;;;;;5041983;28;20190;-82
2021/01/26 02:25:44;;;;;;;9.37;4.93;;;;;;;;;;5011762;28;20210;-81
2021/01/26 02:28:29;;;;;;;10.90;5.03;;;;;;;;;;5043454;28;20210;-81
2021/01/26 02:30:58;;;;;;;11.93;6.00;;;;;;;;;;5040934;28;20195;-85
2021/01/26 02:33:42;;;;;;;9.07;5.17;;;;;;;;;;5041864;28;20629;-82
2021/01/26 02:36:27;;;;;;;9.07;5.90;;;;;;;;;;5040614;28;20524;-81
2021/01/26 02:39:12;;;;;;;13.73;5.80;;;;;;;;;;5041221;28;20609;-85
2021/01/26 02:41:39;;;;;;;10.27;5.27;;;;;;;;;;5040495;28;20207;-81
2021/01/26 02:44:18;;;;;;;7.67;5.47;;;;;;;;;;5024117;28;20217;-84
2021/01/26 02:46:48;;;;;;;10.13;5.70;;;;;;;;;;5041873;28;20183;-81
2021/01/26 02:49:33;;;;;;;8.47;4.77;;;;;;;;;;5024663;28;20564;-81
2021/01/26 02:52:02;;;;;;;10.80;4.93;;;;;;;;;;5041980;28;20205;-81
2021/01/26 02:54:29;;;;;;;10.53;5.40;;;;;;;;;;5042155;28;20182;-83
2021/01/26 02:56:55;;;;;;;7.40;4.30;;;;;;;;;;5024486;28;20206;-80
2021/01/26 02:59:21;;;;;;;8.70;5.33;;;;;;;;;;5040799;28;20187;-81
2021/01/26 03:02:08;;;;;;;10.87;4.07;;;;;;;;;;5040221;28;20206;-80
2021/01/26 03:04:57;;;;;;;12.97;4.93;;;;;;;;;;5040796;28;20186;-83
2021/01/26 03:07:23;;;;;;;6.67;3.80;;;;;;;;;;5029478;28;20385;-81
2021/01/26 03:09:51;;;;;;;10.63;4.17;;;;;;;;;;5040766;28;20170;-81
2021/01/26 03:12:35;;;;;;;9.83;4.57;;;;;;;;;;5041213;28;20609;-81
2021/01/26 03:15:03;;;;;;;12.43;3.90;;;;;;;;;;5023462;28;20178;-80
2021/01/26 03:17:36;;;;;;;10.47;4.73;;;;;;;;;;5040242;28;20222;-80
2021/01/26 03:20:07;;;;;;;7.00;3.80;;;;;;;;;;5024537;28;20248;-84
2021/01/26 03:22:33;;;;;;;8.00;4.47;;;;;;;;;;5025036;28;20236;-82
2021/01/26 03:24:59;;;;;;;10.83;4.50;;;;;;;;;;5039874;28;20179;-81
2021/01/26 03:27:29;;;;;;;9.17;4.20;;;;;;;;;;5023801;28;20638;-81
2021/01/26 03:29:55;;;;;;;9.73;3.90;;;;;;;;;;5039486;28;20178;-80
2021/01/26 03:32:31;;;;;;;9.27;4.70;;;;;;;;;;5024619;28;20202;-81
2021/01/26 03:34:57;;;;;;;10.67;4.40;;;;;;;;;;5040134;28;20626;-81
2021/01/26 03:37:23;;;;;;;12.70;4.80;;;;;;;;;;5024182;28;20241;-81
2021/01/26 03:39:49;;;;;;;10.80;4.67;;;;;;;;;;5022698;28;20654;-81
2021/01/26 03:42:15;;;;;;;15.23;4.77;;;;;;;;;;5023130;28;20245;-81
2021/01/26 03:44:41;;;;;;;11.57;4.63;;;;;;;;;;5040674;28;20178;-82
2021/01/26 03:47:26;;;;;;;10.03;4.83;;;;;;;;;;5039308;28;20186;-81
2021/01/26 03:49:58;;;;;;;10.23;4.73;;;;;;;;;;5040481;28;20553;-80
2021/01/26 03:52:43;;;;;;;9.07;4.70;;;;;;;;;;5039595;28;20178;-80
2021/01/26 03:55:09;;;;;;;15.73;4.77;;;;;;;;;;5040592;28;20197;-82
2021/01/26 03:57:58;;;;;;;13.07;4.90;;;;;;;;;;5040578;28;20242;-83
2021/01/26 04:00:39;;;;;;;13.17;4.97;;;;;;;;;;5006601;28;20215;-81
2021/01/26 04:03:22;;;;;;;14.10;4.43;;;;;;;;;;5042290;28;20273;-80
2021/01/26 04:06:10;;;;;;;14.37;4.53;;;;;;;;;;5027339;28;20195;-82
2021/01/26 04:08:36;;;;;;;8.67;4.23;;;;;;;;;;5047369;28;20194;-82
2021/01/26 04:11:13;;;;;;;11.40;4.27;;;;;;;;;;5047007;28;20205;-83
2021/01/26 04:13:42;;;;;;;9.77;4.10;;;;;;;;;;5043711;28;20175;-84
2021/01/26 04:16:08;;;;;;;12.47;4.37;;;;;;;;;;5027497;28;20203;-81
2021/01/26 04:18:37;;;;;;;12.17;4.30;;;;;;;;;;5029700;28;20194;-82
2021/01/26 04:21:03;;;;;;;11.17;3.70;;;;;;;;;;5045595;28;20194;-80
2021/01/26 04:23:29;;;;;;;8.03;3.50;;;;;;;;;;5029851;28;20179;-84
2021/01/26 04:25:57;;;;;;;15.00;3.47;;;;;;;;;;5030784;28;20305;-82
2021/01/26 04:28:34;;;;;;;10.13;2.90;;;;;;;;;;5028935;28;20214;-81
2021/01/26 04:31:00;;;;;;;8.07;3.23;;;;;;;;;;5031318;28;20210;-84
2021/01/26 04:33:26;;;;;;;12.63;2.63;;;;;;;;;;5030975;28;20183;-82
2021/01/26 04:35:52;;;;;;;9.80;2.80;;;;;;;;;;5030392;28;20634;-83
2021/01/26 04:38:18;;;;;;;11.17;2.70;;;;;;;;;;5030178;28;20187;-82
2021/01/26 04:40:44;;;;;;;10.93;2.83;;;;;;;;;;5045646;28;20206;-86
2021/01/26 04:43:11;;;;;;;6.10;2.80;;;;;;;;;;5028111;28;20270;-84
2021/01/26 04:45:46;;;;;;;9.43;2.87;;;;;;;;;;5028385;28;20189;-82
2021/01/26 04:48:13;;;;;;;10.57;2.70;;;;;;;;;;5045079;28;20206;-82
2021/01/26 04:50:42;;;;;;;10.47;2.50;;;;;;;;;;5028794;28;20203;-80
2021/01/26 04:53:23;;;;;;;7.43;2.40;;;;;;;;;;5046378;28;20175;-82
2021/01/26 04:56:09;;;;;;;6.03;2.20;;;;;;;;;;5045487;28;20175;-80
2021/01/26 04:58:53;;;;;;;9.37;2.17;;;;;;;;;;5027906;28;20187;-82
2021/01/26 05:01:38;;;;;;;6.60;2.37;;;;;;;;;;5043239;28;20682;-81
2021/01/26 05:04:08;;;;;;;7.50;2.10;;;;;;;;;;5045475;28;20206;-80
2021/01/26 05:06:40;;;;;;;5.00;2.00;;;;;;;;;;5104287;23;20219;-75
2021/01/26 05:09:08;;;;;;;7.40;1.90;;;;;;;;;;5033568;28;20770;-75
2021/01/26 05:11:35;;;;;;;5.80;1.90;;;;;;;;;;5035901;28;20175;-75
2021/01/26 05:14:02;;;;;;;5.77;1.93;;;;;;;;;;5035089;28;20534;-76
2021/01/26 05:16:48;;;;;;;8.23;2.00;;;;;;;;;;5016424;28;20206;-75
2021/01/26 05:19:22;;;;;;;6.53;1.87;;;;;;;;;;5005360;28;20187;-76
2021/01/26 05:22:07;;;;;;;4.93;1.57;;;;;;;;;;4997460;28;20243;-76
2021/01/26 05:24:40;;;;;;;6.73;1.67;;;;;;;;;;4997376;28;20184;-76
2021/01/26 05:27:06;;;;;;;6.53;2.00;;;;;;;;;;4997066;28;20613;-76
2021/01/26 05:29:32;;;;;;;5.67;1.80;;;;;;;;;;4997511;28;20211;-76
2021/01/26 05:31:59;;;;;;;7.73;1.80;;;;;;;;;;4997850;28;20596;-76
2021/01/26 05:34:25;;;;;;;3.87;2.07;;;;;;;;;;4997998;28;20187;-76
2021/01/26 05:36:51;;;;;;;10.80;2.00;;;;;;;;;;4997774;28;20206;-76
2021/01/26 05:39:19;;;;;;;5.03;1.83;;;;;;;;;;4997613;28;20649;-76
2021/01/26 05:41:45;;;;;;;7.30;1.90;;;;;;;;;;4990680;28;20234;-76
2021/01/26 05:44:13;;;;;;;5.67;2.03;;;;;;;;;;5014452;28;20192;-76
2021/01/26 05:46:48;;;;;;;5.30;2.07;;;;;;;;;;4997917;28;20231;-76
2021/01/26 05:49:37;;;;;;;7.50;2.10;;;;;;;;;;4995859;28;20645;-76
2021/01/26 05:52:04;;;;;;;8.83;2.27;;;;;;;;;;5016036;28;20202;-76
2021/01/26 05:54:30;;;;;;;7.57;1.90;;;;;;;;;;4998847;28;20547;-76
2021/01/26 05:56:56;;;;;;;10.07;2.10;;;;;;;;;;4999725;28;20226;-76
2021/01/26 05:59:32;;;;;;;10.67;2.20;;;;;;;;;;4998537;28;20171;-76
2021/01/26 06:02:14;;;;;;;8.50;2.17;;;;;;;;;;4996471;28;20180;-76
2021/01/26 06:04:41;;;;;;;6.50;1.87;;;;;;;;;;4997209;28;20202;-76
2021/01/26 06:07:16;;;;;;;10.07;2.10;;;;;;;;;;4998925;28;20678;-77
2021/01/26 06:09:42;;;;;;;8.93;2.30;;;;;;;;;;4986131;28;20204;-77
2021/01/26 06:12:18;;;;;;;11.83;1.73;;;;;;;;;;4978123;28;20267;-76
2021/01/26 06:14:47;;;;;;;7.30;1.80;;;;;;;;;;4978163;28;20188;-78
2021/01/26 06:17:20;;;;;;;7.17;1.97;;;;;;;;;;4978257;28;20574;-76
2021/01/26 06:19:52;;;;;;;11.73;2.30;;;;;;;;;;4977580;28;20187;-77
2021/01/26 06:22:27;;;;;;;9.00;2.37;;;;;;;;;;4977676;28;20172;-75
2021/01/26 06:24:53;;;;;;;12.93;2.23;;;;;;;;;;4979934;28;20188;-76
2021/01/26 06:27:25;;;;;;;6.30;2.10;;;;;;;;;;4978646;28;20294;-76
2021/01/26 06:29:57;;;;;;;8.43;2.50;;;;;;;;;;4976516;28;20212;-77
2021/01/26 06:32:42;;;;;;;10.03;2.10;;;;;;;;;;4981685;28;20183;-76
2021/01/26 06:35:17;;;;;;;12.23;2.53;;;;;;;;;;4996657;28;20186;-77
2021/01/26 06:37:55;;;;;;;10.50;2.50;;;;;;;;;;4996299;28;20200;-76
2021/01/26 06:40:24;;;;;;;5.00;1.73;;;;;;;;;;4995882;28;20638;-79
2021/01/26 06:43:10;;;;;;;8.40;2.10;;;;;;;;;;5013909;28;20661;-77
2021/01/26 06:45:42;;;;;;;6.83;1.83;;;;;;;;;;4994832;28;20236;-76
2021/01/26 06:48:08;;;;;;;6.40;2.00;;;;;;;;;;5012058;28;20699;-76
2021/01/26 06:50:49;;;;;;;7.33;2.10;;;;;;;;;;5012417;28;20253;-76
2021/01/26 06:53:15;;;;;;;9.07;2.63;;;;;;;;;;4992548;28;20175;-75
2021/01/26 06:55:47;;;;;;;11.30;2.30;;;;;;;;;;5011629;28;20183;-77
2021/01/26 06:58:25;;;;;;;9.40;2.50;;;;;;;;;;5009460;28;20204;-78
2021/01/26 07:00:51;;;;;;;11.10;2.07;;;;;;;;;;5010380;28;20183;-76
2021/01/26 07:03:31;;;;;;;7.57;2.27;;;;;;;;;;5012805;28;20183;-76
2021/01/26 07:06:22;;;;;;;5.10;2.10;;;;;;;;;;4994820;28;20529;-76
2021/01/26 07:08:54;;;;;;;6.17;2.63;;;;;;;;;;5002858;28;20215;-76
2021/01/26 07:11:32;;;;;;;11.30;3.87;;;;;;;;;;5010059;28;20624;-75
2021/01/26 07:14:03;;;;;;;13.10;5.00;;;;;;;;;;5011966;28;20273;-75
2021/01/26 07:16:43;;;;;;;10.93;5.23;;;;;;;;;;4994970;28;20609;-76
2021/01/26 07:19:27;;;;;;;10.20;5.60;;;;;;;;;;4994952;28;20668;-75
2021/01/26 07:22:01;;;;;;;10.90;5.87;;;;;;;;;;4995177;28;20203;-76
2021/01/26 07:24:29;;;;;;;10.73;5.73;;;;;;;;;;4996468;28;20464;-77
2021/01/26 07:27:01;;;;;;;11.37;6.10;;;;;;;;;;4995349;28;20208;-77
2021/01/26 07:29:30;;;;;;;13.77;6.67;;;;;;;;;;5013080;28;20353;-80
2021/01/26 07:31:59;;;;;;;13.40;7.00;;;;;;;;;;4996251;28;20548;-77
2021/01/26 07:34:42;;;;;;;11.00;6.50;;;;;;;;;;4996298;28;20551;-77
2021/01/26 07:37:12;;;;;;;10.87;6.80;;;;;;;;;;4995393;28;20230;-76
2021/01/26 07:39:41;;;;;;;12.83;7.47;;;;;;;;;;4996638;28;20242;-76
2021/01/26 07:42:20;;;;;;;12.70;7.30;;;;;;;;;;4996012;28;20274;-76
2021/01/26 07:45:04;;;;;;;10.73;6.63;;;;;;;;;;4976726;28;20176;-76
2021/01/26 07:47:30;;;;;;;11.93;7.27;;;;;;;;;;5009707;28;20207;-75
2021/01/26 07:50:07;;;;;;;17.10;7.83;;;;;;;;;;5012011;28;20260;-75
2021/01/26 07:52:33;;;;;;;14.30;8.17;;;;;;;;;;4994966;28;20187;-76
2021/01/26 07:55:07;;;;;;;17.10;8.07;;;;;;;;;;4995020;28;20175;-75
2021/01/26 07:57:52;;;;;;;15.47;8.23;;;;;;;;;;4995184;28;20199;-76
2021/01/26 08:00:20;;;;;;;16.30;7.97;;;;;;;;;;5008765;28;20226;-76
2021/01/26 08:02:49;;;;;;;14.33;8.13;;;;;;;;;;4979889;28;20339;-77
2021/01/26 08:05:17;;;;;;;17.63;9.77;;;;;;;;;;4993344;28;20210;-77
2021/01/26 08:07:43;;;;;;;17.70;9.97;;;;;;;;;;4994353;28;20211;-76
2021/01/26 08:10:15;;;;;;;21.77;11.03;;;;;;;;;;4995165;28;20254;-77
2021/01/26 08:12:42;;;;;;;19.23;10.50;;;;;;;;;;4994799;28;20306;-76
2021/01/26 08:15:14;;;;;;;20.57;11.07;;;;;;;;;;4994748;28;20569;-76
2021/01/26 08:17:40;;;;;;;21.87;11.00;;;;;;;;;;4994414;28;20203;-76
2021/01/26 08:20:21;;;;;;;20.33;10.37;;;;;;;;;;4994707;28;20179;-76
2021/01/26 08:23:08;;;;;;;22.67;10.30;;;;;;;;;;5012592;28;20175;-76
2021/01/26 08:25:34;;;;;;;23.13;11.43;;;;;;;;;;5011881;28;20184;-76
2021/01/26 08:28:01;;;;;;;19.97;11.03;;;;;;;;;;4994584;28;20600;-76
2021/01/26 08:30:48;;;;;;;20.83;11.33;;;;;;;;;;5010358;28;20193;-78
2021/01/26 08:33:17;;;;;;;18.20;10.20;;;;;;;;;;5011900;28;20265;-79
2021/01/26 08:36:02;;;;;;;19.07;10.87;;;;;;;;;;5011934;28;20237;-78
2021/01/26 08:38:47;;;;;;;20.13;10.77;;;;;;;;;;4994273;28;20198;-78
2021/01/26 08:41:13;;;;;;;23.43;12.83;;;;;;;;;;4994221;28;20185;-78
2021/01/26 08:43:43;;;;;;;22.20;12.73;;;;;;;;;;4996668;28;20689;-78
2021/01/26 08:46:09;;;;;;;24.27;12.90;;;;;;;;;;4995523;28;20768;-77
2021/01/26 08:48:36;;;;;;;23.60;13.00;;;;;;;;;;4997933;28;20207;-79
2021/01/26 08:51:03;;;;;;;24.03;13.13;;;;;;;;;;4996908;28;20226;-76
2021/01/26 08:53:29;;;;;;;22.93;12.70;;;;;;;;;;4997318;28;20179;-78
2021/01/26 08:56:01;;;;;;;24.40;13.43;;;;;;;;;;4998254;28;20191;-81
2021/01/26 08:58:55;;;;;;;25.60;14.40;;;;;;;;;;4998732;28;20182;-78
2021/01/26 09:01:25;;;;;;;26.37;13.43;;;;;;;;;;4996383;28;20245;-77
2021/01/26 09:03:51;;;;;;;26.13;14.23;;;;;;;;;;4997630;28;20183;-76
2021/01/26 09:06:35;;;;;;;26.93;13.63;;;;;;;;;;5014885;28;20262;-77
2021/01/26 09:09:01;;;;;;;23.73;13.80;;;;;;;;;;5015096;28;20198;-77
2021/01/26 09:11:30;;;;;;;23.90;13.67;;;;;;;;;;4997951;28;20544;-77
2021/01/26 09:14:04;;;;;;;25.63;13.90;;;;;;;;;;4997513;28;20274;-76
2021/01/26 09:16:30;;;;;;;23.23;12.37;;;;;;;;;;4997811;28;20202;-77
2021/01/26 09:19:12;;;;;;;23.67;13.13;;;;;;;;;;4997313;28;20612;-77
2021/01/26 09:21:38;;;;;;;25.70;15.07;;;;;;;;;;4997531;28;20234;-77
2021/01/26 09:24:04;;;;;;;26.23;14.00;;;;;;;;;;4998018;28;20190;-77
2021/01/26 09:26:30;;;;;;;24.20;14.70;;;;;;;;;;4998070;28;20210;-77
2021/01/26 09:28:56;;;;;;;28.43;14.43;;;;;;;;;;4998759;28;20712;-77
2021/01/26 09:31:24;;;;;;;26.53;14.93;;;;;;;;;;4994788;28;20184;-76
2021/01/26 09:33:59;;;;;;;33.83;16.63;;;;;;;;;;4994871;28;20187;-77
2021/01/26 09:36:25;;;;;;;28.77;16.33;;;;;;;;;;5012074;28;20199;-76
2021/01/26 09:38:51;;;;;;;28.53;15.53;;;;;;;;;;4997348;28;20179;-77
2021/01/26 09:41:21;;;;;;;25.43;14.93;;;;;;;;;;4996336;28;20179;-77
2021/01/26 09:43:48;;;;;;;26.27;14.57;;;;;;;;;;4994735;28;20172;-77
2021/01/26 09:46:16;;;;;;;26.67;15.37;;;;;;;;;;4996562;28;20176;-76
2021/01/26 09:48:43;;;;;;;24.47;14.70;;;;;;;;;;5014207;28;20200;-76
2021/01/26 09:51:10;;;;;;;25.63;15.47;;;;;;;;;;5006167;28;20238;-76
2021/01/26 09:53:36;;;;;;;26.43;14.93;;;;;;;;;;4996607;28;20265;-78
2021/01/26 09:56:03;;;;;;;26.67;14.47;;;;;;;;;;4992813;28;20208;-79
2021/01/26 09:58:29;;;;;;;24.03;14.80;;;;;;;;;;5003598;28;20183;-78
2021/01/26 10:00:55;;;;;;;25.30;14.43;;;;;;;;;;4996151;28;20184;-79
2021/01/26 10:03:23;;;;;;;22.60;14.10;;;;;;;;;;5010572;28;20271;-79
2021/01/26 10:05:49;;;;;;;24.60;14.23;;;;;;;;;;4997543;28;20597;-78
2021/01/26 10:08:21;;;;;;;22.97;14.57;;;;;;;;;;4992817;28;20271;-78
2021/01/26 10:10:47;;;;;;;22.20;14.10;;;;;;;;;;5004770;28;20186;-78
2021/01/26 10:13:19;;;;;;;24.97;14.80;;;;;;;;;;4993177;28;20175;-78
2021/01/26 10:15:45;;;;;;;25.10;13.43;;;;;;;;;;4996402;28;20308;-78
2021/01/26 10:18:15;;;;;;;19.40;12.60;;;;;;;;;;4992621;28;20268;-78
2021/01/26 10:20:44;;;;;;;21.10;13.33;;;;;;;;;;5012175;28;20184;-78
2021/01/26 10:23:12;;;;;;;20.73;13.03;;;;;;;;;;4997524;28;20262;-78
2021/01/26 10:25:39;;;;;;;22.43;13.03;;;;;;;;;;4993781;28;20184;-78
2021/01/26 10:28:06;;;;;;;19.40;12.23;;;;;;;;;;5006660;28;20294;-78
2021/01/26 10:30:32;;;;;;;20.20;13.27;;;;;;;;;;4993768;28;20185;-78
2021/01/26 10:32:58;;;;;;;20.97;12.90;;;;;;;;;;4995038;28;20192;-78
2021/01/26 10:35:35;;;;;;;19.57;12.90;;;;;;;;;;4997755;28;20710;-78
2021/01/26 10:38:20;;;;;;;18.90;12.20;;;;;;;;;;4998493;28;20329;-80
2021/01/26 10:40:46;;;;;;;20.23;12.43;;;;;;;;;;4996071;28;20586;-78
2021/01/26 10:43:20;;;;;;;20.33;12.80;;;;;;;;;;4990400;28;20177;-78
2021/01/26 10:45:50;;;;;;;21.07;13.10;;;;;;;;;;5001997;28;20183;-78
2021/01/26 10:48:25;;;;;;;21.23;13.37;;;;;;;;;;4994099;28;20255;-79
2021/01/26 10:50:51;;;;;;;20.93;12.73;;;;;;;;;;5012094;28;20218;-76
2021/01/26 10:53:38;;;;;;;18.73;12.57;;;;;;;;;;4993002;28;20670;-76
2021/01/26 10:56:04;;;;;;;21.47;12.83;;;;;;;;;;4980864;28;20180;-77
2021/01/26 10:58:31;;;;;;;17.20;11.87;;;;;;;;;;5007636;28;20198;-77
2021/01/26 11:00:57;;;;;;;16.23;10.80;;;;;;;;;;4993781;28;20229;-76
2021/01/26 11:03:23;;;;;;;17.10;10.77;;;;;;;;;;4996076;28;20306;-78
2021/01/26 11:05:49;;;;;;;17.00;11.20;;;;;;;;;;4996564;28;20234;-77
2021/01/26 11:08:15;;;;;;;16.87;10.90;;;;;;;;;;4995638;28;20225;-77
2021/01/26 11:10:41;;;;;;;16.77;10.80;;;;;;;;;;4993652;28;20191;-77
2021/01/26 11:13:07;;;;;;;14.90;10.03;;;;;;;;;;4992660;28;20550;-77
2021/01/26 11:15:33;;;;;;;17.17;10.20;;;;;;;;;;4992677;28;20180;-77
2021/01/26 11:17:59;;;;;;;13.37;9.60;;;;;;;;;;4993891;28;20188;-76
2021/01/26 11:20:25;;;;;;;13.10;9.07;;;;;;;;;;5013224;28;20175;-77
2021/01/26 11:22:51;;;;;;;12.73;8.90;;;;;;;;;;5013402;28;20187;-78
2021/01/26 11:25:17;;;;;;;16.30;9.73;;;;;;;;;;4996982;28;20195;-78
2021/01/26 11:27:43;;;;;;;13.20;8.90;;;;;;;;;;4995541;28;20202;-78
2021/01/26 11:30:10;;;;;;;15.50;9.93;;;;;;;;;;4996060;28;20176;-78
2021/01/26 11:32:36;;;;;;;15.07;9.87;;;;;;;;;;4995663;28;20171;-78
2021/01/26 11:35:02;;;;;;;15.57;9.57;;;;;;;;;;4996017;28;20184;-78
2021/01/26 11:37:28;;;;;;;13.13;9.03;;;;;;;;;;4995952;28;20204;-77
2021/01/26 11:39:54;;;;;;;12.87;8.47;;;;;;;;;;4995393;28;20183;-77
2021/01/26 11:42:20;;;;;;;12.80;9.03;;;;;;;;;;4992751;28;20194;-79
2021/01/26 11:44:49;;;;;;;11.30;8.40;;;;;;;;;;4997074;28;20588;-79
2021/01/26 11:47:16;;;;;;;9.93;7.57;;;;;;;;;;4996711;28;20301;-78
2021/01/26 11:49:42;;;;;;;11.03;7.63;;;;;;;;;;4992258;28;20302;-77
2021/01/26 11:52:08;;;;;;;11.47;7.70;;;;;;;;;;4979643;28;20203;-82
2021/01/26 11:54:34;;;;;;;9.90;6.90;;;;;;;;;;4979223;28;20180;-80
2021/01/26 11:57:00;;;;;;;11.57;7.83;;;;;;;;;;4986788;28;20249;-79
2021/01/26 11:59:25;;;;;;;12.20;8.07;;;;;;;;;;4999393;28;20655;-81
2021/01/26 12:01:58;;;;;;;12.73;8.63;;;;;;;;;;4997819;28;20183;-79
2021/01/26 12:04:24;;;;;;;11.23;7.97;;;;;;;;;;4997667;28;20164;-80
2021/01/26 12:06:50;;;;;;;10.07;7.63;;;;;;;;;;4996623;28;20289;-79
2021/01/26 12:09:16;;;;;;;16.40;8.77;;;;;;;;;;4997169;28;20248;-79
2021/01/26 12:11:42;;;;;;;12.03;7.77;;;;;;;;;;4996514;28;20203;-80
2021/01/26 12:14:08;;;;;;;12.43;7.67;;;;;;;;;;4995971;28;20555;-80
2021/01/26 12:16:35;;;;;;;9.70;6.90;;;;;;;;;;4995891;28;20199;-80
2021/01/26 12:19:01;;;;;;;11.33;7.77;;;;;;;;;;4999375;28;20254;-80
2021/01/26 12:21:27;;;;;;;10.00;7.33;;;;;;;;;;5002060;28;20227;-81
2021/01/26 12:23:53;;;;;;;10.33;7.37;;;;;;;;;;5000446;28;20183;-79
2021/01/26 12:26:19;;;;;;;12.30;6.87;;;;;;;;;;4999097;28;20227;-79
2021/01/26 12:28:45;;;;;;;10.07;7.83;;;;;;;;;;5000427;28;20208;-80
2021/01/26 12:31:11;;;;;;;11.07;6.97;;;;;;;;;;4999518;28;20174;-80
2021/01/26 12:33:37;;;;;;;9.10;7.07;;;;;;;;;;4998998;28;20538;-80
2021/01/26 12:36:03;;;;;;;10.30;6.70;;;;;;;;;;4999642;28;20204;-78
2021/01/26 12:38:29;;;;;;;10.40;7.13;;;;;;;;;;5002684;28;20191;-78
2021/01/26 12:40:55;;;;;;;9.03;6.57;;;;;;;;;;5001521;28;20184;-79
2021/01/26 12:43:21;;;;;;;10.53;6.80;;;;;;;;;;5002679;28;20190;-80
2021/01/26 12:45:47;;;;;;;11.17;7.40;;;;;;;;;;5004351;28;20559;-79
2021/01/26 12:48:13;;;;;;;9.93;6.53;;;;;;;;;;5005153;28;20242;-79
2021/01/26 12:50:41;;;;;;;10.07;6.93;;;;;;;;;;5003930;28;20182;-79
2021/01/26 12:53:07;;;;;;;8.90;6.47;;;;;;;;;;5001751;28;20736;-78
2021/01/26 12:55:33;;;;;;;10.00;7.13;;;;;;;;;;4999420;28;20183;-78
2021/01/26 12:57:59;;;;;;;12.23;6.90;;;;;;;;;;5015711;28;20229;-77
2021/01/26 13:00:25;;;;;;;9.03;6.10;;;;;;;;;;5017532;28;20644;-78
2021/01/26 13:02:53;;;;;;;8.73;5.57;;;;;;;;;;4999276;28;20816;-78
2021/01/26 13:05:22;;;;;;;8.73;6.87;;;;;;;;;;5000712;28;20192;-79
2021/01/26 13:07:48;;;;;;;8.33;6.50;;;;;;;;;;4998585;28;20222;-78
2021/01/26 13:10:14;;;;;;;7.97;6.20;;;;;;;;;;5000300;28;20722;-79
2021/01/26 13:12:40;;;;;;;8.87;6.70;;;;;;;;;;5000476;28;20192;-78
2021/01/26 13:15:06;;;;;;;8.50;5.80;;;;;;;;;;4997300;28;20302;-78
2021/01/26 13:17:32;;;;;;;10.40;6.23;;;;;;;;;;4996377;28;20250;-76
2021/01/26 13:19:58;;;;;;;7.33;5.70;;;;;;;;;;5011504;28;20570;-77
2021/01/26 13:22:24;;;;;;;8.27;5.73;;;;;;;;;;4998245;28;20195;-79
2021/01/26 13:24:50;;;;;;;7.70;5.90;;;;;;;;;;5002446;28;20184;-79
2021/01/26 13:27:16;;;;;;;6.23;4.80;;;;;;;;;;5000008;28;20211;-79
2021/01/26 13:29:43;;;;;;;6.97;4.70;;;;;;;;;;4999368;28;20588;-79
2021/01/26 13:32:09;;;;;;;5.50;4.23;;;;;;;;;;4996706;28;20706;-77
2021/01/26 13:34:35;;;;;;;6.10;4.50;;;;;;;;;;4996684;28;20182;-79
2021/01/26 13:37:01;;;;;;;5.23;4.13;;;;;;;;;;4997770;28;20196;-78
2021/01/26 13:39:27;;;;;;;5.83;3.93;;;;;;;;;;4997340;28;20191;-78
2021/01/26 13:41:56;;;;;;;4.43;3.67;;;;;;;;;;4997121;28;20183;-76
2021/01/26 13:44:22;;;;;;;5.87;3.53;;;;;;;;;;5014143;28;20175;-77
2021/01/26 13:46:47;;;;;;;4.97;3.77;;;;;;;;;;4996402;28;20725;-76
2021/01/26 13:49:13;;;;;;;5.83;3.83;;;;;;;;;;4992738;28;20573;-76
2021/01/26 13:51:39;;;;;;;6.27;4.50;;;;;;;;;;5001681;28;20219;-76
2021/01/26 13:54:05;;;;;;;4.27;3.23;;;;;;;;;;4996397;28;20175;-76
2021/01/26 13:56:31;;;;;;;6.27;3.20;;;;;;;;;;4992892;28;20674;-76
2021/01/26 13:58:58;;;;;;;5.37;3.47;;;;;;;;;;4992981;28;20187;-76
2021/01/26 14:01:24;;;;;;;3.43;3.13;;;;;;;;;;5000992;28;20191;-76
2021/01/26 14:03:50;;;;;;;5.60;3.30;;;;;;;;;;4992451;28;20195;-76
2021/01/26 14:06:16;;;;;;;5.37;3.23;;;;;;;;;;4996003;28;20322;-76
2021/01/26 14:08:42;;;;;;;4.60;3.20;;;;;;;;;;4996928;28;20667;-76
2021/01/26 14:11:08;;;;;;;6.40;3.30;;;;;;;;;;4995951;28;20179;-77
2021/01/26 14:13:34;;;;;;;6.10;3.37;;;;;;;;;;5013305;28;20183;-77
2021/01/26 14:16:00;;;;;;;4.40;3.33;;;;;;;;;;4993358;28;20180;-76
2021/01/26 14:18:26;;;;;;;3.50;2.93;;;;;;;;;;5007002;28;20253;-76
2021/01/26 14:20:52;;;;;;;6.27;2.97;;;;;;;;;;4996082;28;20188;-76
2021/01/26 14:23:22;;;;;;;5.10;2.97;;;;;;;;;;4996852;28;20190;-76
2021/01/26 14:25:49;;;;;;;3.63;2.80;;;;;;;;;;4994498;28;20231;-77
2021/01/26 14:28:15;;;;;;;3.53;3.03;;;;;;;;;;4995043;28;20247;-76
2021/01/26 14:30:41;;;;;;;5.73;2.77;;;;;;;;;;4993909;28;20180;-76
2021/01/26 14:33:07;;;;;;;3.70;2.80;;;;;;;;;;4992331;28;20279;-76
2021/01/26 14:35:34;;;;;;;3.17;2.57;;;;;;;;;;4993650;28;20184;-76
2021/01/26 14:38:00;;;;;;;3.40;2.43;;;;;;;;;;4994657;28;20205;-76
2021/01/26 14:40:26;;;;;;;4.47;2.73;;;;;;;;;;4993682;28;20684;-76
2021/01/26 14:42:52;;;;;;;3.27;2.50;;;;;;;;;;4992565;28;20269;-76
2021/01/26 14:45:19;;;;;;;4.67;3.07;;;;;;;;;;4992332;28;20188;-76